sensor_id;sensor_type;location;lat;lon;timestamp;temperature;humidity
20125;DHT22;10223;50.862;4.360;2023-02-03T00:00:40;9.80;99.90
20125;DHT22;10223;50.862;4.360;2023-02-03T00:03:07;9.80;99.90
20125;DHT22;10223;50.862;4.360;2023-02-03T00:05:35;9.80;99.90
20125;DHT22;10223;50.862;4.360;2023-02-03T00:08:03;9.80;99.90
20125;DHT22;10223;50.862;4.360;2023-02-03T00:10:30;9.90;99.90
20125;DHT22;10223;50.862;4.360;2023-02-03T00:12:58;9.90;99.90
20125;DHT22;10223;50.862;4.360;2023-02-03T00:15:25;9.80;99.90
20125;DHT22;10223;50.862;4.360;2023-02-03T00:17:54;9.70;99.90
20125;DHT22;10223;50.862;4.360;2023-02-03T00:20:21;9.70;99.90
20125;DHT22;10223;50.862;4.360;2023-02-03T00:22:50;9.60;99.90
20125;DHT22;10223;50.862;4.360;2023-02-03T00:25:17;9.60;99.90
20125;DHT22;10223;50.862;4.360;2023-02-03T00:27:46;9.70;99.90
20125;DHT22;10223;50.862;4.360;2023-02-03T00:30:13;9.70;99.90
20125;DHT22;10223;50.862;4.360;2023-02-03T00:32:39;9.70;99.90
20125;DHT22;10223;50.862;4.360;2023-02-03T00:35:08;9.70;99.90
20125;DHT22;10223;50.862;4.360;2023-02-03T00:37:35;9.70;99.90
20125;DHT22;10223;50.862;4.360;2023-02-03T00:40:02;9.80;99.90
20125;DHT22;10223;50.862;4.360;2023-02-03T00:42:29;9.80;99.90
20125;DHT22;10223;50.862;4.360;2023-02-03T00:44:56;9.80;99.90
20125;DHT22;10223;50.862;4.360;2023-02-03T00:47:23;9.70;99.90
20125;DHT22;10223;50.862;4.360;2023-02-03T00:49:50;9.70;99.90
20125;DHT22;10223;50.862;4.360;2023-02-03T00:52:18;9.70;99.90
20125;DHT22;10223;50.862;4.360;2023-02-03T00:54:45;9.80;99.90
20125;DHT22;10223;50.862;4.360;2023-02-03T00:57:12;9.80;99.90
20125;DHT22;10223;50.862;4.360;2023-02-03T00:59:39;9.80;99.90
20125;DHT22;10223;50.862;4.360;2023-02-03T01:02:06;9.80;99.90
20125;DHT22;10223;50.862;4.360;2023-02-03T01:04:33;9.80;99.90
20125;DHT22;10223;50.862;4.360;2023-02-03T01:07:00;9.90;99.90
20125;DHT22;10223;50.862;4.360;2023-02-03T01:09:32;9.90;99.90
20125;DHT22;10223;50.862;4.360;2023-02-03T01:11:59;9.80;99.90
20125;DHT22;10223;50.862;4.360;2023-02-03T01:14:26;9.80;99.90
20125;DHT22;10223;50.862;4.360;2023-02-03T01:16:53;9.80;99.90
20125;DHT22;10223;50.862;4.360;2023-02-03T01:19:20;9.80;99.90
20125;DHT22;10223;50.862;4.360;2023-02-03T01:21:47;9.90;99.90
20125;DHT22;10223;50.862;4.360;2023-02-03T01:24:14;9.90;99.90
20125;DHT22;10223;50.862;4.360;2023-02-03T01:26:43;9.90;99.90
20125;DHT22;10223;50.862;4.360;2023-02-03T01:29:10;9.90;99.90
20125;DHT22;10223;50.862;4.360;2023-02-03T01:31:38;9.90;99.90
20125;DHT22;10223;50.862;4.360;2023-02-03T01:34:08;9.90;99.90
20125;DHT22;10223;50.862;4.360;2023-02-03T01:36:36;9.90;99.90
20125;DHT22;10223;50.862;4.360;2023-02-03T01:39:04;9.90;99.90
20125;DHT22;10223;50.862;4.360;2023-02-03T01:41:33;9.90;99.90
20125;DHT22;10223;50.862;4.360;2023-02-03T01:44:36;10.00;99.90
20125;DHT22;10223;50.862;4.360;2023-02-03T01:47:05;9.90;99.90
20125;DHT22;10223;50.862;4.360;2023-02-03T01:49:38;9.90;99.90
20125;DHT22;10223;50.862;4.360;2023-02-03T01:52:05;10.00;99.90
20125;DHT22;10223;50.862;4.360;2023-02-03T01:54:37;9.90;99.90
20125;DHT22;10223;50.862;4.360;2023-02-03T01:57:11;10.00;99.90
20125;DHT22;10223;50.862;4.360;2023-02-03T01:59:41;10.00;99.90
20125;DHT22;10223;50.862;4.360;2023-02-03T02:02:10;9.90;99.90
20125;DHT22;10223;50.862;4.360;2023-02-03T02:04:45;9.90;99.90
20125;DHT22;10223;50.862;4.360;2023-02-03T02:07:15;9.90;99.90
20125;DHT22;10223;50.862;4.360;2023-02-03T02:09:43;9.90;99.90
20125;DHT22;10223;50.862;4.360;2023-02-03T02:12:10;9.80;99.90
20125;DHT22;10223;50.862;4.360;2023-02-03T02:14:40;9.90;99.90
20125;DHT22;10223;50.862;4.360;2023-02-03T02:17:13;10.00;99.90
20125;DHT22;10223;50.862;4.360;2023-02-03T02:22:57;9.90;99.90
20125;DHT22;10223;50.862;4.360;2023-02-03T02:25:54;10.00;99.90
20125;DHT22;10223;50.862;4.360;2023-02-03T02:28:47;10.00;99.90
20125;DHT22;10223;50.862;4.360;2023-02-03T02:31:39;10.00;99.90
20125;DHT22;10223;50.862;4.360;2023-02-03T02:34:13;9.90;99.90
20125;DHT22;10223;50.862;4.360;2023-02-03T02:36:54;9.90;99.90
20125;DHT22;10223;50.862;4.360;2023-02-03T02:39:37;9.90;99.90
20125;DHT22;10223;50.862;4.360;2023-02-03T02:42:10;9.90;99.90
20125;DHT22;10223;50.862;4.360;2023-02-03T02:44:43;10.00;99.90
20125;DHT22;10223;50.862;4.360;2023-02-03T02:47:17;10.00;99.90
20125;DHT22;10223;50.862;4.360;2023-02-03T02:49:49;10.00;99.90
20125;DHT22;10223;50.862;4.360;2023-02-03T02:52:18;9.90;99.90
20125;DHT22;10223;50.862;4.360;2023-02-03T02:54:50;9.90;99.90
20125;DHT22;10223;50.862;4.360;2023-02-03T02:57:19;9.90;99.90
20125;DHT22;10223;50.862;4.360;2023-02-03T02:59:47;9.80;99.90
20125;DHT22;10223;50.862;4.360;2023-02-03T03:02:15;9.90;99.90
20125;DHT22;10223;50.862;4.360;2023-02-03T03:04:44;9.90;99.90
20125;DHT22;10223;50.862;4.360;2023-02-03T03:07:14;9.90;99.90
20125;DHT22;10223;50.862;4.360;2023-02-03T03:09:46;10.00;99.90
20125;DHT22;10223;50.862;4.360;2023-02-03T03:12:16;9.90;99.90
20125;DHT22;10223;50.862;4.360;2023-02-03T03:14:49;10.00;99.90
20125;DHT22;10223;50.862;4.360;2023-02-03T03:17:23;9.90;99.90
20125;DHT22;10223;50.862;4.360;2023-02-03T03:19:54;10.00;99.90
20125;DHT22;10223;50.862;4.360;2023-02-03T03:22:25;9.90;99.90
20125;DHT22;10223;50.862;4.360;2023-02-03T03:24:59;10.00;99.90
20125;DHT22;10223;50.862;4.360;2023-02-03T03:27:30;9.90;99.90
20125;DHT22;10223;50.862;4.360;2023-02-03T03:30:02;9.90;99.90
20125;DHT22;10223;50.862;4.360;2023-02-03T03:32:32;9.90;99.90
20125;DHT22;10223;50.862;4.360;2023-02-03T03:35:00;9.90;99.90
20125;DHT22;10223;50.862;4.360;2023-02-03T03:37:31;9.90;99.90
20125;DHT22;10223;50.862;4.360;2023-02-03T03:40:01;10.00;99.90
20125;DHT22;10223;50.862;4.360;2023-02-03T03:42:34;9.90;99.90
20125;DHT22;10223;50.862;4.360;2023-02-03T03:45:08;9.90;99.90
20125;DHT22;10223;50.862;4.360;2023-02-03T03:47:41;10.00;99.90
20125;DHT22;10223;50.862;4.360;2023-02-03T03:50:13;10.00;99.90
20125;DHT22;10223;50.862;4.360;2023-02-03T03:52:42;9.90;99.90
20125;DHT22;10223;50.862;4.360;2023-02-03T03:55:12;9.90;99.90
20125;DHT22;10223;50.862;4.360;2023-02-03T03:57:42;9.90;99.90
20125;DHT22;10223;50.862;4.360;2023-02-03T04:00:13;10.00;99.90
20125;DHT22;10223;50.862;4.360;2023-02-03T04:02:45;10.00;99.90
20125;DHT22;10223;50.862;4.360;2023-02-03T04:05:16;10.00;99.90
20125;DHT22;10223;50.862;4.360;2023-02-03T04:07:44;10.10;99.90
20125;DHT22;10223;50.862;4.360;2023-02-03T04:10:17;10.20;99.90
20125;DHT22;10223;50.862;4.360;2023-02-03T04:12:46;10.00;99.90
20125;DHT22;10223;50.862;4.360;2023-02-03T04:15:13;9.90;99.90
20125;DHT22;10223;50.862;4.360;2023-02-03T04:17:40;9.90;99.90
20125;DHT22;10223;50.862;4.360;2023-02-03T04:20:10;9.90;99.90
20125;DHT22;10223;50.862;4.360;2023-02-03T04:22:37;9.90;99.90
20125;DHT22;10223;50.862;4.360;2023-02-03T04:25:05;9.90;99.90
20125;DHT22;10223;50.862;4.360;2023-02-03T04:27:34;9.90;99.90
20125;DHT22;10223;50.862;4.360;2023-02-03T04:30:02;9.90;99.90
20125;DHT22;10223;50.862;4.360;2023-02-03T04:32:29;9.80;99.90
20125;DHT22;10223;50.862;4.360;2023-02-03T04:34:57;9.90;99.90
20125;DHT22;10223;50.862;4.360;2023-02-03T04:37:25;9.80;99.90
20125;DHT22;10223;50.862;4.360;2023-02-03T04:39:52;10.00;99.90
20125;DHT22;10223;50.862;4.360;2023-02-03T04:42:20;9.90;99.90
20125;DHT22;10223;50.862;4.360;2023-02-03T04:44:47;9.90;99.90
20125;DHT22;10223;50.862;4.360;2023-02-03T04:47:15;9.90;99.90
20125;DHT22;10223;50.862;4.360;2023-02-03T04:49:42;9.90;99.90
20125;DHT22;10223;50.862;4.360;2023-02-03T04:52:09;9.90;99.90
20125;DHT22;10223;50.862;4.360;2023-02-03T04:54:37;9.90;99.90
20125;DHT22;10223;50.862;4.360;2023-02-03T04:57:05;10.00;99.90
20125;DHT22;10223;50.862;4.360;2023-02-03T04:59:32;9.90;99.90
20125;DHT22;10223;50.862;4.360;2023-02-03T05:02:01;10.00;99.90
20125;DHT22;10223;50.862;4.360;2023-02-03T05:04:27;9.90;99.90
20125;DHT22;10223;50.862;4.360;2023-02-03T05:06:54;9.80;99.90
20125;DHT22;10223;50.862;4.360;2023-02-03T05:09:22;9.80;99.90
20125;DHT22;10223;50.862;4.360;2023-02-03T05:11:50;9.90;99.90
20125;DHT22;10223;50.862;4.360;2023-02-03T05:14:17;9.80;99.90
20125;DHT22;10223;50.862;4.360;2023-02-03T05:16:44;9.80;99.90
20125;DHT22;10223;50.862;4.360;2023-02-03T05:19:11;9.80;99.90
20125;DHT22;10223;50.862;4.360;2023-02-03T05:21:39;9.90;99.90
20125;DHT22;10223;50.862;4.360;2023-02-03T05:24:06;9.90;99.90
20125;DHT22;10223;50.862;4.360;2023-02-03T05:26:33;9.90;99.90
20125;DHT22;10223;50.862;4.360;2023-02-03T05:29:02;9.80;99.90
20125;DHT22;10223;50.862;4.360;2023-02-03T05:31:29;9.80;99.90
20125;DHT22;10223;50.862;4.360;2023-02-03T05:33:55;9.90;99.90
20125;DHT22;10223;50.862;4.360;2023-02-03T05:36:22;9.80;99.90
20125;DHT22;10223;50.862;4.360;2023-02-03T05:38:49;9.80;99.90
20125;DHT22;10223;50.862;4.360;2023-02-03T05:41:16;9.90;99.90
20125;DHT22;10223;50.862;4.360;2023-02-03T05:44:03;9.80;99.90
20125;DHT22;10223;50.862;4.360;2023-02-03T05:46:29;9.80;99.90
20125;DHT22;10223;50.862;4.360;2023-02-03T05:48:56;9.90;99.90
20125;DHT22;10223;50.862;4.360;2023-02-03T05:51:23;9.90;99.90
20125;DHT22;10223;50.862;4.360;2023-02-03T05:53:50;9.90;99.90
20125;DHT22;10223;50.862;4.360;2023-02-03T05:56:18;9.90;99.90
20125;DHT22;10223;50.862;4.360;2023-02-03T05:58:45;9.90;99.90
20125;DHT22;10223;50.862;4.360;2023-02-03T06:01:13;9.80;99.90
20125;DHT22;10223;50.862;4.360;2023-02-03T06:03:40;9.90;99.90
20125;DHT22;10223;50.862;4.360;2023-02-03T06:06:07;9.80;99.90
20125;DHT22;10223;50.862;4.360;2023-02-03T06:08:34;10.00;99.90
20125;DHT22;10223;50.862;4.360;2023-02-03T06:11:01;9.90;99.90
20125;DHT22;10223;50.862;4.360;2023-02-03T06:13:28;9.90;99.90
20125;DHT22;10223;50.862;4.360;2023-02-03T06:15:55;9.90;99.90
20125;DHT22;10223;50.862;4.360;2023-02-03T06:18:23;10.10;99.90
20125;DHT22;10223;50.862;4.360;2023-02-03T06:20:50;10.00;99.90
20125;DHT22;10223;50.862;4.360;2023-02-03T06:23:17;10.10;99.90
20125;DHT22;10223;50.862;4.360;2023-02-03T06:25:46;10.00;99.90
20125;DHT22;10223;50.862;4.360;2023-02-03T06:28:13;9.90;99.90
20125;DHT22;10223;50.862;4.360;2023-02-03T06:30:40;9.80;99.90
20125;DHT22;10223;50.862;4.360;2023-02-03T06:33:07;9.80;99.90
20125;DHT22;10223;50.862;4.360;2023-02-03T06:35:36;10.00;99.90
20125;DHT22;10223;50.862;4.360;2023-02-03T06:38:03;9.90;99.90
20125;DHT22;10223;50.862;4.360;2023-02-03T06:40:30;9.80;99.90
20125;DHT22;10223;50.862;4.360;2023-02-03T06:42:57;10.00;99.90
20125;DHT22;10223;50.862;4.360;2023-02-03T06:45:24;9.80;99.90
20125;DHT22;10223;50.862;4.360;2023-02-03T06:47:51;9.90;99.90
20125;DHT22;10223;50.862;4.360;2023-02-03T06:50:18;9.90;99.90
20125;DHT22;10223;50.862;4.360;2023-02-03T06:52:48;9.90;99.90
20125;DHT22;10223;50.862;4.360;2023-02-03T06:55:15;9.80;99.90
20125;DHT22;10223;50.862;4.360;2023-02-03T06:57:43;9.80;99.90
20125;DHT22;10223;50.862;4.360;2023-02-03T07:00:12;9.90;99.90
20125;DHT22;10223;50.862;4.360;2023-02-03T07:02:40;9.90;99.90
20125;DHT22;10223;50.862;4.360;2023-02-03T07:05:07;9.90;99.90
20125;DHT22;10223;50.862;4.360;2023-02-03T07:07:34;9.90;99.90
20125;DHT22;10223;50.862;4.360;2023-02-03T07:10:04;9.90;99.90
20125;DHT22;10223;50.862;4.360;2023-02-03T07:12:31;9.90;99.90
20125;DHT22;10223;50.862;4.360;2023-02-03T07:14:58;10.00;99.90
20125;DHT22;10223;50.862;4.360;2023-02-03T07:17:25;10.00;99.90
20125;DHT22;10223;50.862;4.360;2023-02-03T07:19:52;9.90;99.90
20125;DHT22;10223;50.862;4.360;2023-02-03T07:22:19;10.00;99.90
20125;DHT22;10223;50.862;4.360;2023-02-03T07:24:46;9.90;99.90
20125;DHT22;10223;50.862;4.360;2023-02-03T07:27:14;9.90;99.90
20125;DHT22;10223;50.862;4.360;2023-02-03T07:29:41;9.90;99.90
20125;DHT22;10223;50.862;4.360;2023-02-03T07:32:08;9.90;99.90
20125;DHT22;10223;50.862;4.360;2023-02-03T07:34:35;9.90;99.90
20125;DHT22;10223;50.862;4.360;2023-02-03T07:37:02;9.90;99.90
20125;DHT22;10223;50.862;4.360;2023-02-03T07:39:29;9.90;99.90
20125;DHT22;10223;50.862;4.360;2023-02-03T07:41:56;9.80;99.90
20125;DHT22;10223;50.862;4.360;2023-02-03T07:44:24;9.80;99.90
20125;DHT22;10223;50.862;4.360;2023-02-03T07:46:51;9.80;99.90
20125;DHT22;10223;50.862;4.360;2023-02-03T07:49:18;10.00;99.90
20125;DHT22;10223;50.862;4.360;2023-02-03T07:51:45;9.90;99.90
20125;DHT22;10223;50.862;4.360;2023-02-03T07:54:12;9.90;99.90
20125;DHT22;10223;50.862;4.360;2023-02-03T07:56:41;9.90;99.90
20125;DHT22;10223;50.862;4.360;2023-02-03T07:59:08;9.90;99.90
20125;DHT22;10223;50.862;4.360;2023-02-03T08:01:36;9.90;99.90
20125;DHT22;10223;50.862;4.360;2023-02-03T08:04:03;10.00;99.90
20125;DHT22;10223;50.862;4.360;2023-02-03T08:06:30;10.00;99.90
20125;DHT22;10223;50.862;4.360;2023-02-03T08:08:57;10.00;99.90
20125;DHT22;10223;50.862;4.360;2023-02-03T08:11:24;10.00;99.90
20125;DHT22;10223;50.862;4.360;2023-02-03T08:13:51;10.00;99.90
20125;DHT22;10223;50.862;4.360;2023-02-03T08:16:18;10.10;99.90
20125;DHT22;10223;50.862;4.360;2023-02-03T08:18:47;10.00;99.90
20125;DHT22;10223;50.862;4.360;2023-02-03T08:21:14;9.90;99.90
20125;DHT22;10223;50.862;4.360;2023-02-03T08:23:41;10.10;99.90
20125;DHT22;10223;50.862;4.360;2023-02-03T08:26:07;10.00;99.90
20125;DHT22;10223;50.862;4.360;2023-02-03T08:28:34;9.90;99.90
20125;DHT22;10223;50.862;4.360;2023-02-03T08:31:07;9.90;99.90
20125;DHT22;10223;50.862;4.360;2023-02-03T08:33:34;10.00;99.90
20125;DHT22;10223;50.862;4.360;2023-02-03T08:36:04;10.00;99.90
20125;DHT22;10223;50.862;4.360;2023-02-03T08:38:31;10.00;99.90
20125;DHT22;10223;50.862;4.360;2023-02-03T08:40:58;10.00;99.90
20125;DHT22;10223;50.862;4.360;2023-02-03T08:43:25;10.00;99.90
20125;DHT22;10223;50.862;4.360;2023-02-03T08:45:52;10.00;99.90
20125;DHT22;10223;50.862;4.360;2023-02-03T08:48:19;10.00;99.90
20125;DHT22;10223;50.862;4.360;2023-02-03T08:50:46;10.10;99.90
20125;DHT22;10223;50.862;4.360;2023-02-03T08:53:18;10.10;99.90
20125;DHT22;10223;50.862;4.360;2023-02-03T08:55:45;10.10;99.90
20125;DHT22;10223;50.862;4.360;2023-02-03T08:58:12;10.20;99.90
20125;DHT22;10223;50.862;4.360;2023-02-03T09:00:40;10.10;99.90
20125;DHT22;10223;50.862;4.360;2023-02-03T09:03:07;10.10;99.90
20125;DHT22;10223;50.862;4.360;2023-02-03T09:05:35;10.00;99.90
20125;DHT22;10223;50.862;4.360;2023-02-03T09:08:03;10.00;99.90
20125;DHT22;10223;50.862;4.360;2023-02-03T09:10:31;10.00;99.90
20125;DHT22;10223;50.862;4.360;2023-02-03T09:12:58;10.10;99.90
20125;DHT22;10223;50.862;4.360;2023-02-03T09:15:25;10.10;99.90
20125;DHT22;10223;50.862;4.360;2023-02-03T09:17:52;10.10;99.90
20125;DHT22;10223;50.862;4.360;2023-02-03T09:20:21;10.10;99.90
20125;DHT22;10223;50.862;4.360;2023-02-03T09:22:48;10.20;99.90
20125;DHT22;10223;50.862;4.360;2023-02-03T09:25:16;10.10;99.90
20125;DHT22;10223;50.862;4.360;2023-02-03T09:27:44;10.20;99.90
20125;DHT22;10223;50.862;4.360;2023-02-03T09:30:11;10.10;99.90
20125;DHT22;10223;50.862;4.360;2023-02-03T09:32:39;10.20;99.90
20125;DHT22;10223;50.862;4.360;2023-02-03T09:35:06;10.20;99.90
20125;DHT22;10223;50.862;4.360;2023-02-03T09:37:33;10.20;99.90
20125;DHT22;10223;50.862;4.360;2023-02-03T09:40:00;10.20;99.90
20125;DHT22;10223;50.862;4.360;2023-02-03T09:43:04;10.20;99.90
20125;DHT22;10223;50.862;4.360;2023-02-03T09:45:36;10.30;99.90
20125;DHT22;10223;50.862;4.360;2023-02-03T09:48:05;10.20;99.90
20125;DHT22;10223;50.862;4.360;2023-02-03T09:50:36;10.30;99.90
20125;DHT22;10223;50.862;4.360;2023-02-03T09:53:11;10.30;99.90
20125;DHT22;10223;50.862;4.360;2023-02-03T09:55:41;10.30;99.90
20125;DHT22;10223;50.862;4.360;2023-02-03T09:58:12;10.40;99.90
20125;DHT22;10223;50.862;4.360;2023-02-03T10:00:42;10.40;99.90
20125;DHT22;10223;50.862;4.360;2023-02-03T10:03:16;10.40;99.90
20125;DHT22;10223;50.862;4.360;2023-02-03T10:06:05;10.30;99.90
20125;DHT22;10223;50.862;4.360;2023-02-03T10:08:48;10.30;99.90
20125;DHT22;10223;50.862;4.360;2023-02-03T10:11:24;10.40;99.90
20125;DHT22;10223;50.862;4.360;2023-02-03T10:14:04;10.40;99.90
20125;DHT22;10223;50.862;4.360;2023-02-03T10:16:41;10.40;99.90
20125;DHT22;10223;50.862;4.360;2023-02-03T10:19:14;10.40;99.90
20125;DHT22;10223;50.862;4.360;2023-02-03T10:21:45;10.40;99.90
20125;DHT22;10223;50.862;4.360;2023-02-03T10:24:17;10.50;99.90
20125;DHT22;10223;50.862;4.360;2023-02-03T10:26:46;10.50;99.90
20125;DHT22;10223;50.862;4.360;2023-02-03T10:29:18;10.60;99.90
20125;DHT22;10223;50.862;4.360;2023-02-03T10:31:46;10.50;99.90
20125;DHT22;10223;50.862;4.360;2023-02-03T10:34:14;10.60;99.90
20125;DHT22;10223;50.862;4.360;2023-02-03T10:36:52;10.70;99.90
20125;DHT22;10223;50.862;4.360;2023-02-03T10:39:26;10.60;99.90
20125;DHT22;10223;50.862;4.360;2023-02-03T10:41:55;10.60;99.90
20125;DHT22;10223;50.862;4.360;2023-02-03T10:44:30;10.50;99.90
20125;DHT22;10223;50.862;4.360;2023-02-03T10:46:57;10.70;99.90
20125;DHT22;10223;50.862;4.360;2023-02-03T10:49:26;10.60;99.90
20125;DHT22;10223;50.862;4.360;2023-02-03T10:51:57;10.80;99.90
20125;DHT22;10223;50.862;4.360;2023-02-03T10:54:30;10.70;99.90
20125;DHT22;10223;50.862;4.360;2023-02-03T10:57:02;10.70;99.90
20125;DHT22;10223;50.862;4.360;2023-02-03T10:59:34;10.70;99.90
20125;DHT22;10223;50.862;4.360;2023-02-03T11:02:08;10.70;99.90
20125;DHT22;10223;50.862;4.360;2023-02-03T11:04:35;10.80;99.90
20125;DHT22;10223;50.862;4.360;2023-02-03T11:07:06;10.90;99.90
20125;DHT22;10223;50.862;4.360;2023-02-03T11:09:35;10.80;99.90
20125;DHT22;10223;50.862;4.360;2023-02-03T11:12:20;10.80;99.90
20125;DHT22;10223;50.862;4.360;2023-02-03T11:14:50;10.80;99.90
20125;DHT22;10223;50.862;4.360;2023-02-03T11:17:19;10.80;99.90
20125;DHT22;10223;50.862;4.360;2023-02-03T11:19:48;10.90;99.90
20125;DHT22;10223;50.862;4.360;2023-02-03T11:22:27;10.80;99.90
20125;DHT22;10223;50.862;4.360;2023-02-03T11:24:55;10.80;99.90
20125;DHT22;10223;50.862;4.360;2023-02-03T11:27:23;10.80;99.90
20125;DHT22;10223;50.862;4.360;2023-02-03T11:30:06;10.80;99.90
20125;DHT22;10223;50.862;4.360;2023-02-03T11:32:36;10.80;99.90
20125;DHT22;10223;50.862;4.360;2023-02-03T11:35:15;10.80;99.90
20125;DHT22;10223;50.862;4.360;2023-02-03T11:37:43;10.80;99.90
20125;DHT22;10223;50.862;4.360;2023-02-03T11:43:02;10.80;99.90
20125;DHT22;10223;50.862;4.360;2023-02-03T11:45:36;10.70;99.90
20125;DHT22;10223;50.862;4.360;2023-02-03T11:48:16;10.70;99.90
20125;DHT22;10223;50.862;4.360;2023-02-03T11:50:46;10.70;99.90
20125;DHT22;10223;50.862;4.360;2023-02-03T11:53:28;10.70;99.90
20125;DHT22;10223;50.862;4.360;2023-02-03T11:56:12;10.60;99.90
20125;DHT22;10223;50.862;4.360;2023-02-03T11:59:04;10.70;99.90
20125;DHT22;10223;50.862;4.360;2023-02-03T12:04:58;10.80;99.90
20125;DHT22;10223;50.862;4.360;2023-02-03T12:07:43;10.80;99.90
20125;DHT22;10223;50.862;4.360;2023-02-03T12:10:25;10.90;99.90
20125;DHT22;10223;50.862;4.360;2023-02-03T12:13:00;10.90;99.90
20125;DHT22;10223;50.862;4.360;2023-02-03T12:15:42;11.00;99.90
20125;DHT22;10223;50.862;4.360;2023-02-03T12:18:23;11.00;99.90
20125;DHT22;10223;50.862;4.360;2023-02-03T12:21:11;11.00;99.90
20125;DHT22;10223;50.862;4.360;2023-02-03T12:23:47;11.00;99.90
20125;DHT22;10223;50.862;4.360;2023-02-03T12:26:21;11.00;99.90
20125;DHT22;10223;50.862;4.360;2023-02-03T12:28:56;11.10;99.90
20125;DHT22;10223;50.862;4.360;2023-02-03T12:31:31;11.00;99.90
20125;DHT22;10223;50.862;4.360;2023-02-03T12:34:11;11.00;99.90
20125;DHT22;10223;50.862;4.360;2023-02-03T12:36:43;11.00;99.90
20125;DHT22;10223;50.862;4.360;2023-02-03T12:39:16;11.00;99.90
20125;DHT22;10223;50.862;4.360;2023-02-03T12:41:48;11.10;99.90
20125;DHT22;10223;50.862;4.360;2023-02-03T12:44:19;11.10;99.90
20125;DHT22;10223;50.862;4.360;2023-02-03T12:46:51;11.10;99.90
20125;DHT22;10223;50.862;4.360;2023-02-03T12:49:28;11.10;99.90
20125;DHT22;10223;50.862;4.360;2023-02-03T12:52:00;11.10;99.90
20125;DHT22;10223;50.862;4.360;2023-02-03T12:54:35;11.20;99.90
20125;DHT22;10223;50.862;4.360;2023-02-03T12:57:12;11.10;99.90
20125;DHT22;10223;50.862;4.360;2023-02-03T12:59:48;11.20;99.90
20125;DHT22;10223;50.862;4.360;2023-02-03T13:02:21;11.40;99.90
20125;DHT22;10223;50.862;4.360;2023-02-03T13:04:53;11.20;99.90
20125;DHT22;10223;50.862;4.360;2023-02-03T13:07:24;11.20;99.90
20125;DHT22;10223;50.862;4.360;2023-02-03T13:09:57;11.30;99.90
20125;DHT22;10223;50.862;4.360;2023-02-03T13:12:28;11.20;99.90
20125;DHT22;10223;50.862;4.360;2023-02-03T13:15:16;11.30;99.90
20125;DHT22;10223;50.862;4.360;2023-02-03T13:17:49;11.20;99.90
20125;DHT22;10223;50.862;4.360;2023-02-03T13:20:20;11.20;99.90
20125;DHT22;10223;50.862;4.360;2023-02-03T13:22:50;11.30;99.90
20125;DHT22;10223;50.862;4.360;2023-02-03T13:25:22;11.20;99.90
20125;DHT22;10223;50.862;4.360;2023-02-03T13:28:00;11.20;99.90
20125;DHT22;10223;50.862;4.360;2023-02-03T13:30:48;11.20;99.90
20125;DHT22;10223;50.862;4.360;2023-02-03T13:36:38;11.30;99.90
20125;DHT22;10223;50.862;4.360;2023-02-03T13:39:31;11.30;99.90
20125;DHT22;10223;50.862;4.360;2023-02-03T13:42:18;11.50;99.90
20125;DHT22;10223;50.862;4.360;2023-02-03T13:44:49;11.30;99.90
20125;DHT22;10223;50.862;4.360;2023-02-03T13:47:20;11.30;99.90
20125;DHT22;10223;50.862;4.360;2023-02-03T13:49:51;11.30;99.90
20125;DHT22;10223;50.862;4.360;2023-02-03T13:52:24;11.30;99.90
20125;DHT22;10223;50.862;4.360;2023-02-03T13:54:53;11.40;99.90
20125;DHT22;10223;50.862;4.360;2023-02-03T13:57:23;11.40;99.90
20125;DHT22;10223;50.862;4.360;2023-02-03T13:59:55;11.40;99.90
20125;DHT22;10223;50.862;4.360;2023-02-03T14:02:40;11.40;99.90
20125;DHT22;10223;50.862;4.360;2023-02-03T14:05:41;11.50;99.90
20125;DHT22;10223;50.862;4.360;2023-02-03T14:11:39;11.40;99.90
20125;DHT22;10223;50.862;4.360;2023-02-03T14:14:41;11.50;99.90
20125;DHT22;10223;50.862;4.360;2023-02-03T14:20:37;11.60;99.90
20125;DHT22;10223;50.862;4.360;2023-02-03T14:23:08;11.40;99.90
20125;DHT22;10223;50.862;4.360;2023-02-03T14:25:39;11.50;99.90
20125;DHT22;10223;50.862;4.360;2023-02-03T14:28:11;11.50;99.90
20125;DHT22;10223;50.862;4.360;2023-02-03T14:34:05;11.60;99.90
20125;DHT22;10223;50.862;4.360;2023-02-03T14:36:51;11.60;99.90
20125;DHT22;10223;50.862;4.360;2023-02-03T14:39:55;11.70;99.90
20125;DHT22;10223;50.862;4.360;2023-02-03T14:45:52;11.60;99.90
20125;DHT22;10223;50.862;4.360;2023-02-03T14:48:33;11.70;99.90
20125;DHT22;10223;50.862;4.360;2023-02-03T14:51:11;11.60;99.90
20125;DHT22;10223;50.862;4.360;2023-02-03T14:53:57;11.70;99.90
20125;DHT22;10223;50.862;4.360;2023-02-03T14:56:35;11.60;99.90
20125;DHT22;10223;50.862;4.360;2023-02-03T14:59:23;11.60;99.90
20125;DHT22;10223;50.862;4.360;2023-02-03T15:02:12;11.60;99.90
20125;DHT22;10223;50.862;4.360;2023-02-03T15:04:40;11.60;99.90
20125;DHT22;10223;50.862;4.360;2023-02-03T15:07:08;11.60;99.90
20125;DHT22;10223;50.862;4.360;2023-02-03T15:09:38;11.60;99.90
20125;DHT22;10223;50.862;4.360;2023-02-03T15:12:16;11.60;99.90
20125;DHT22;10223;50.862;4.360;2023-02-03T15:14:43;11.70;99.90
20125;DHT22;10223;50.862;4.360;2023-02-03T15:17:17;11.60;99.90
20125;DHT22;10223;50.862;4.360;2023-02-03T15:19:47;11.60;99.90
20125;DHT22;10223;50.862;4.360;2023-02-03T15:22:19;11.70;99.90
20125;DHT22;10223;50.862;4.360;2023-02-03T15:24:46;11.70;99.90
20125;DHT22;10223;50.862;4.360;2023-02-03T15:27:20;11.50;99.90
20125;DHT22;10223;50.862;4.360;2023-02-03T15:29:47;11.50;99.90
20125;DHT22;10223;50.862;4.360;2023-02-03T15:32:18;11.50;99.90
20125;DHT22;10223;50.862;4.360;2023-02-03T15:34:49;11.60;99.90
20125;DHT22;10223;50.862;4.360;2023-02-03T15:37:19;11.60;99.90
20125;DHT22;10223;50.862;4.360;2023-02-03T15:39:56;11.60;99.90
20125;DHT22;10223;50.862;4.360;2023-02-03T15:42:28;11.60;99.90
20125;DHT22;10223;50.862;4.360;2023-02-03T15:44:59;11.80;99.90
20125;DHT22;10223;50.862;4.360;2023-02-03T15:47:34;11.70;99.90
20125;DHT22;10223;50.862;4.360;2023-02-03T15:50:14;11.60;99.90
20125;DHT22;10223;50.862;4.360;2023-02-03T15:52:43;11.60;99.90
20125;DHT22;10223;50.862;4.360;2023-02-03T15:55:19;11.60;99.90
20125;DHT22;10223;50.862;4.360;2023-02-03T15:57:49;11.70;99.90
20125;DHT22;10223;50.862;4.360;2023-02-03T16:00:31;11.80;99.90
20125;DHT22;10223;50.862;4.360;2023-02-03T16:03:02;11.70;99.90
20125;DHT22;10223;50.862;4.360;2023-02-03T16:05:32;11.80;99.90
20125;DHT22;10223;50.862;4.360;2023-02-03T16:08:33;11.90;99.90
20125;DHT22;10223;50.862;4.360;2023-02-03T16:11:00;11.80;99.90
20125;DHT22;10223;50.862;4.360;2023-02-03T16:13:28;11.70;99.90
20125;DHT22;10223;50.862;4.360;2023-02-03T16:16:03;11.60;99.90
20125;DHT22;10223;50.862;4.360;2023-02-03T16:18:35;11.70;99.90
20125;DHT22;10223;50.862;4.360;2023-02-03T16:21:02;11.70;99.90
20125;DHT22;10223;50.862;4.360;2023-02-03T16:23:30;11.90;99.90
20125;DHT22;10223;50.862;4.360;2023-02-03T16:26:02;11.90;99.90
20125;DHT22;10223;50.862;4.360;2023-02-03T16:28:29;11.70;99.90